Time;durP1;ratioP1;P1;durP2;ratioP2;P2;SDS_P1;SDS_P2;PMS_P1;PMS_P2;Temp;Humidity;BMP_temperature;BMP_pressure;BME280_temperature;BME280_humidity;BME280_pressure;Samples;Min_cycle;Max_cycle;Signal;HPM_P1;HPM_P2
2023/09/11 00:01:08;;;;;;;36.33;8.10;;;17.00;99.90;;;;;;5079012;28;19960;-64
2023/09/11 00:03:33;;;;;;;;;;;16.90;99.90;;;;;;5076722;28;20552;-66
2023/09/11 00:06:04;;;;;;;25.63;7.68;;;16.90;99.90;;;;;;5080729;28;19927;-66
2023/09/11 00:08:29;;;;;;;28.38;7.85;;;16.80;99.90;;;;;;5078284;28;20051;-65
2023/09/11 00:10:55;;;;;;;;;;;16.80;99.90;;;;;;5083564;28;20040;-66
2023/09/11 00:13:20;;;;;;;34.72;7.85;;;16.80;99.90;;;;;;5077010;28;19939;-65
2023/09/11 00:15:46;;;;;;;;;;;16.80;99.90;;;;;;5082619;28;20099;-65
2023/09/11 00:18:11;;;;;;;27.55;7.38;;;16.90;99.90;;;;;;5069230;28;19927;-65
2023/09/11 00:20:37;;;;;;;;;;;16.80;99.90;;;;;;5061580;28;20115;-65
2023/09/11 00:23:03;;;;;;;35.65;8.35;;;16.80;99.90;;;;;;5067962;28;20018;-64
2023/09/11 00:25:28;;;;;;;26.88;7.40;;;16.80;99.90;;;;;;5063230;28;20071;-64
2023/09/11 00:27:54;;;;;;;;;;;16.80;99.90;;;;;;5070717;28;20688;-66
2023/09/11 00:30:20;;;;;;;26.30;7.60;;;16.80;99.90;;;;;;5059179;28;20395;-64
2023/09/11 00:32:45;;;;;;;33.40;7.85;;;16.80;99.90;;;;;;5069264;28;21452;-64
2023/09/11 00:35:11;;;;;;;;;;;16.80;99.90;;;;;;5065025;28;20094;-65
2023/09/11 00:37:36;;;;;;;30.42;8.00;;;16.80;99.90;;;;;;5067989;28;19923;-66
2023/09/11 00:40:03;;;;;;;32.58;7.03;;;16.70;99.90;;;;;;5063186;28;20507;-64
2023/09/11 00:42:29;;;;;;;31.58;7.68;;;16.70;99.90;;;;;;5069232;28;20120;-64
2023/09/11 00:44:55;;;;;;;;;;;16.70;99.90;;;;;;5063776;28;20155;-65
2023/09/11 00:47:20;;;;;;;22.85;8.10;;;16.70;99.90;;;;;;5068012;28;19924;-65
2023/09/11 00:49:46;;;;;;;;;;;16.70;99.90;;;;;;5063368;28;20053;-64
2023/09/11 00:52:12;;;;;;;30.73;7.15;;;16.70;99.90;;;;;;5064388;28;19977;-64
2023/09/11 00:54:38;;;;;;;38.45;7.72;;;16.70;99.90;;;;;;5062772;28;20047;-65
2023/09/11 00:57:04;;;;;;;;;;;16.70;99.90;;;;;;5064567;28;20131;-65
2023/09/11 00:59:30;;;;;;;15.85;6.18;;;16.70;99.90;;;;;;5062214;28;19974;-65
2023/09/11 01:01:56;;;;;;;;;;;16.60;99.90;;;;;;5057933;28;20802;-64
2023/09/11 01:04:22;;;;;;;25.92;7.45;;;16.60;99.90;;;;;;5064158;28;20699;-63
2023/09/11 01:06:47;;;;;;;36.85;7.65;;;16.60;99.90;;;;;;5063649;28;20437;-64
2023/09/11 01:09:13;;;;;;;;;;;16.60;99.90;;;;;;5062502;28;20094;-64
2023/09/11 01:11:39;;;;;;;25.42;7.13;;;16.50;99.90;;;;;;5064250;28;19959;-64
2023/09/11 01:14:04;;;;;;;;;;;16.50;99.90;;;;;;5064731;28;20073;-63
2023/09/11 01:16:41;;;;;;;30.15;7.43;;;16.50;99.90;;;;;;5069665;28;19923;-64
2023/09/11 01:19:35;;;;;;;31.08;8.50;;;16.50;99.90;;;;;;5061733;28;20389;-64
2023/09/11 01:22:33;;;;;;;27.15;7.13;;;16.40;99.90;;;;;;5062371;28;20036;-64
2023/09/11 01:25:10;;;;;;;26.20;8.65;;;16.40;99.90;;;;;;5039652;28;20131;-65
2023/09/11 01:28:07;;;;;;;31.80;7.57;;;16.40;99.90;;;;;;5067174;28;20036;-64
2023/09/11 01:30:34;;;;;;;30.67;7.80;;;16.40;99.90;;;;;;5063625;28;20063;-62
2023/09/11 01:33:00;;;;;;;32.83;7.18;;;16.40;99.90;;;;;;5061719;28;20295;-65
2023/09/11 01:35:26;;;;;;;;;;;16.40;99.90;;;;;;5068202;28;20117;-64
2023/09/11 01:37:51;;;;;;;34.13;8.30;;;16.30;99.90;;;;;;5066891;28;19916;-66
2023/09/11 01:40:19;;;;;;;21.65;6.75;;;16.30;99.90;;;;;;5063007;28;20041;-64
2023/09/11 01:42:49;;;;;;;28.15;7.55;;;16.30;99.90;;;;;;5066129;28;20089;-65
2023/09/11 01:45:16;;;;;;;25.55;7.00;;;16.30;99.90;;;;;;5064232;28;20032;-65
2023/09/11 01:47:46;;;;;;;24.85;6.82;;;16.30;99.90;;;;;;5067121;28;20091;-65
2023/09/11 01:50:15;;;;;;;18.73;6.60;;;16.40;99.90;;;;;;5065942;28;20059;-65
2023/09/11 01:52:43;;;;;;;24.77;7.00;;;16.40;99.90;;;;;;5066496;28;20032;-65
2023/09/11 01:55:09;;;;;;;29.70;7.57;;;16.40;99.90;;;;;;5060911;28;20040;-70
2023/09/11 01:57:34;;;;;;;;;;;16.50;99.90;;;;;;5064462;28;20048;-65
2023/09/11 02:00:00;;;;;;;29.48;6.93;;;16.50;99.90;;;;;;5064500;28;19927;-65
2023/09/11 02:02:29;;;;;;;32.58;6.88;;;16.50;99.90;;;;;;5062066;28;20567;-65
2023/09/11 02:04:55;;;;;;;22.83;7.03;;;16.50;99.90;;;;;;5065175;28;20037;-66
2023/09/11 02:07:20;;;;;;;;;;;16.40;99.90;;;;;;5068489;28;20411;-64
2023/09/11 02:09:46;;;;;;;20.40;6.72;;;16.50;99.90;;;;;;5061182;28;20006;-65
2023/09/11 02:12:12;;;;;;;30.50;7.72;;;16.50;99.90;;;;;;5066094;28;20377;-65
2023/09/11 02:14:38;;;;;;;23.35;7.05;;;16.40;99.90;;;;;;5063027;28;20047;-64
2023/09/11 02:17:04;;;;;;;;;;;16.40;99.90;;;;;;5069715;28;20439;-64
2023/09/11 02:19:30;;;;;;;24.85;8.07;;;16.50;99.90;;;;;;5066072;28;19927;-65
2023/09/11 02:21:56;;;;;;;27.65;7.50;;;16.40;99.90;;;;;;5068493;28;20048;-64
2023/09/11 02:24:21;;;;;;;;;;;16.40;99.90;;;;;;5067202;28;20822;-65
2023/09/11 02:26:47;;;;;;;28.88;7.40;;;16.40;99.90;;;;;;5060340;28;19933;-64
2023/09/11 02:29:12;;;;;;;;;;;16.40;99.90;;;;;;5060908;28;20040;-65
2023/09/11 02:31:38;;;;;;;24.08;7.13;;;16.40;99.90;;;;;;5066877;28;20014;-65
2023/09/11 02:34:03;;;;;;;;;;;16.40;99.90;;;;;;5067216;28;20480;-65
2023/09/11 02:36:29;;;;;;;34.28;7.75;;;16.40;99.90;;;;;;5066963;28;19955;-65
2023/09/11 02:38:55;;;;;;;22.85;7.35;;;16.40;99.90;;;;;;5065149;28;20576;-64
2023/09/11 02:41:20;;;;;;;33.22;7.78;;;16.40;99.90;;;;;;5067460;28;20040;-64
2023/09/11 02:43:46;;;;;;;;;;;16.40;99.90;;;;;;5065349;28;20060;-65
2023/09/11 02:46:11;;;;;;;23.40;6.85;;;16.40;99.90;;;;;;5067959;28;19928;-64
2023/09/11 02:48:44;;;;;;;25.83;6.45;;;16.40;99.90;;;;;;5065566;28;20661;-66
2023/09/11 02:51:09;;;;;;;27.45;7.50;;;16.40;99.90;;;;;;5061367;28;20032;-65
2023/09/11 02:53:35;;;;;;;;;;;16.40;99.90;;;;;;5064703;28;20107;-64
2023/09/11 02:56:01;;;;;;;33.45;6.22;;;16.50;99.90;;;;;;5066768;28;20017;-64
2023/09/11 02:58:27;;;;;;;19.92;6.00;;;16.50;99.90;;;;;;5066407;28;20411;-64
2023/09/11 03:00:52;;;;;;;20.55;5.38;;;16.50;99.90;;;;;;5065607;28;20044;-65
2023/09/11 03:03:18;;;;;;;;;;;16.50;99.90;;;;;;5063912;28;20033;-65
2023/09/11 03:05:43;;;;;;;24.52;5.93;;;16.60;99.90;;;;;;5063773;28;19959;-64
2023/09/11 03:08:11;;;;;;;24.60;6.05;;;16.60;99.90;;;;;;5059622;28;20078;-64
2023/09/11 03:10:37;;;;;;;27.08;6.32;;;16.70;99.90;;;;;;5066357;28;20756;-64
2023/09/11 03:13:03;;;;;;;;;;;16.80;99.90;;;;;;5065842;28;20123;-66
2023/09/11 03:15:30;;;;;;;25.27;7.22;;;16.90;99.90;;;;;;5068101;28;19916;-65
2023/09/11 03:18:00;;;;;;;25.70;6.50;;;17.00;99.90;;;;;;5066514;28;20037;-65
2023/09/11 03:20:25;;;;;;;19.90;6.28;;;17.00;99.90;;;;;;5065481;28;20040;-64
2023/09/11 03:22:52;;;;;;;;;;;17.10;99.90;;;;;;5067468;28;20056;-65
2023/09/11 03:25:17;;;;;;;26.63;6.20;;;17.20;99.90;;;;;;5067092;28;19916;-65
2023/09/11 03:27:43;;;;;;;;;;;17.20;99.90;;;;;;5066781;28;20294;-65
2023/09/11 03:30:09;;;;;;;28.25;7.05;;;17.20;99.90;;;;;;5064610;28;19917;-64
2023/09/11 03:32:34;;;;;;;25.40;6.90;;;17.30;99.90;;;;;;5063241;28;20048;-65
2023/09/11 03:35:00;;;;;;;;;;;17.30;99.90;;;;;;5065369;28;20052;-65
2023/09/11 03:37:25;;;;;;;23.27;6.10;;;17.30;99.90;;;;;;5067046;28;19948;-65
2023/09/11 03:39:51;;;;;;;;;;;17.30;99.90;;;;;;5063304;28;20594;-66
2023/09/11 03:42:16;;;;;;;24.33;6.10;;;17.40;99.90;;;;;;5066941;28;20053;-65
2023/09/11 03:44:42;;;;;;;;;;;17.40;99.90;;;;;;5061011;28;20052;-65
2023/09/11 03:47:07;;;;;;;24.15;5.63;;;17.40;99.90;;;;;;5067466;28;19999;-65
2023/09/11 03:49:33;;;;;;;;;;;17.40;99.90;;;;;;5062063;28;20134;-64
2023/09/11 03:51:58;;;;;;;25.42;6.72;;;17.40;99.90;;;;;;5065482;28;19920;-65
2023/09/11 03:54:24;;;;;;;20.52;5.78;;;17.40;99.90;;;;;;5065109;28;20472;-64
2023/09/11 03:56:50;;;;;;;;;;;17.40;99.90;;;;;;5069353;28;20036;-64
2023/09/11 03:59:15;;;;;;;24.70;7.00;;;17.40;99.90;;;;;;5065929;28;19924;-65
2023/09/11 04:01:41;;;;;;;;;;;17.40;99.90;;;;;;5069519;28;20044;-65
2023/09/11 04:04:07;;;;;;;17.90;5.93;;;17.40;99.90;;;;;;5065175;28;19928;-65
2023/09/11 04:06:32;;;;;;;;;;;17.30;99.90;;;;;;5063826;28;20067;-63
2023/09/11 04:08:58;;;;;;;33.47;7.43;;;17.10;99.90;;;;;;5065396;28;19923;-65
2023/09/11 04:11:23;;;;;;;;;;;17.00;99.90;;;;;;5069565;28;20036;-65
2023/09/11 04:13:49;;;;;;;17.52;6.13;;;16.90;99.90;;;;;;5065146;28;19927;-65
2023/09/11 04:16:15;;;;;;;14.90;5.45;;;16.80;99.90;;;;;;5069001;28;20041;-64
2023/09/11 04:18:44;;;;;;;27.15;6.43;;;16.70;99.90;;;;;;5062896;28;20047;-64
2023/09/11 04:21:10;;;;;;;19.05;5.75;;;16.70;99.90;;;;;;5066658;28;20040;-64
2023/09/11 04:23:35;;;;;;;;;;;16.60;99.90;;;;;;5067471;28;20040;-65
2023/09/11 04:26:01;;;;;;;17.40;6.13;;;16.60;99.90;;;;;;5066040;28;19920;-63
2023/09/11 04:28:27;;;;;;;22.95;7.00;;;16.60;99.90;;;;;;5068521;28;20076;-64
2023/09/11 04:30:52;;;;;;;21.70;7.05;;;16.50;99.90;;;;;;5065518;28;20613;-66
2023/09/11 04:33:18;;;;;;;;;;;16.50;99.90;;;;;;5069617;28;20039;-64
2023/09/11 04:35:44;;;;;;;18.92;6.45;;;16.50;99.90;;;;;;5068193;28;20010;-65
2023/09/11 04:38:10;;;;;;;26.92;6.75;;;16.50;99.90;;;;;;5069441;28;20036;-65
2023/09/11 04:40:36;;;;;;;24.63;6.78;;;16.40;99.90;;;;;;5069432;28;20040;-65
2023/09/11 04:43:01;;;;;;;;;;;16.40;99.90;;;;;;5070030;28;20044;-65
2023/09/11 04:45:27;;;;;;;15.75;6.03;;;16.40;99.90;;;;;;5069759;28;19936;-66
2023/09/11 04:47:52;;;;;;;;;;;16.40;99.90;;;;;;5069737;28;20563;-65
2023/09/11 04:50:18;;;;;;;23.00;6.65;;;16.30;99.90;;;;;;5065189;28;20577;-64
2023/09/11 04:52:43;;;;;;;;;;;16.30;99.90;;;;;;5069141;28;20057;-65
2023/09/11 04:55:09;;;;;;;18.95;6.03;;;16.30;99.90;;;;;;5067152;28;19923;-64
2023/09/11 04:57:36;;;;;;;;;;;16.40;99.90;;;;;;5065361;28;20125;-65
2023/09/11 05:00:06;;;;;;;15.07;6.40;;;16.40;99.90;;;;;;5060771;28;19917;-63
2023/09/11 05:02:31;;;;;;;21.52;6.75;;;16.50;99.90;;;;;;5068128;28;20131;-65
2023/09/11 05:04:57;;;;;;;;;;;16.50;99.90;;;;;;5066050;28;20512;-64
2023/09/11 05:07:22;;;;;;;19.33;6.93;;;16.50;99.90;;;;;;5069933;28;19924;-64
2023/09/11 05:09:48;;;;;;;;;;;16.50;99.90;;;;;;5066453;28;20049;-65
2023/09/11 05:12:13;;;;;;;18.45;6.50;;;16.50;99.90;;;;;;5067589;28;20946;-65
2023/09/11 05:14:39;;;;;;;;;;;16.60;99.90;;;;;;5062846;28;20480;-63
2023/09/11 05:17:05;;;;;;;12.25;5.70;;;16.70;99.90;;;;;;5066827;28;19927;-64
2023/09/11 05:19:30;;;;;;;;;;;16.80;99.90;;;;;;5062691;28;20044;-62
2023/09/11 05:21:57;;;;;;;25.17;6.68;;;16.90;99.90;;;;;;5061397;28;19970;-59
2023/09/11 05:24:23;;;;;;;20.27;6.40;;;17.10;99.90;;;;;;5064017;28;20049;-63
2023/09/11 05:26:48;;;;;;;;;;;17.30;99.90;;;;;;5068177;28;20044;-63
2023/09/11 05:29:14;;;;;;;16.70;6.32;;;17.70;99.90;;;;;;5065972;28;19995;-64
2023/09/11 05:31:40;;;;;;;21.33;6.72;;;18.20;99.90;;;;;;5062698;28;20404;-64
2023/09/11 05:34:05;;;;;;;17.33;6.05;;;18.40;99.90;;;;;;5064617;28;20032;-64
2023/09/11 05:36:31;;;;;;;17.13;6.00;;;18.40;99.90;;;;;;5066161;28;20055;-63
2023/09/11 05:38:56;;;;;;;;;;;18.50;99.90;;;;;;5061344;28;20047;-63
2023/09/11 05:41:22;;;;;;;24.92;6.38;;;18.50;99.90;;;;;;5064751;28;20060;-64
2023/09/11 05:43:48;;;;;;;16.92;6.20;;;18.50;99.90;;;;;;5060185;28;20047;-63
2023/09/11 05:46:13;;;;;;;17.30;5.65;;;18.60;99.90;;;;;;5062303;28;20550;-63
2023/09/11 05:48:39;;;;;;;;;;;18.60;99.90;;;;;;5065304;28;20037;-63
2023/09/11 05:51:04;;;;;;;14.57;7.15;;;18.50;99.90;;;;;;5057061;28;20322;-66
2023/09/11 05:53:30;;;;;;;24.63;6.55;;;18.50;99.90;;;;;;5061258;28;20082;-66
2023/09/11 05:55:55;;;;;;;23.52;6.78;;;18.40;99.90;;;;;;5058651;28;20731;-66
2023/09/11 05:58:21;;;;;;;;;;;18.50;99.90;;;;;;5065058;28;20400;-66
2023/09/11 06:00:48;;;;;;;18.63;6.18;;;18.50;99.90;;;;;;5062594;28;19920;-65
2023/09/11 06:03:19;;;;;;;20.88;5.15;;;18.50;99.90;;;;;;5064445;28;20044;-65
2023/09/11 06:05:45;;;;;;;15.07;5.90;;;18.50;99.90;;;;;;5063062;28;20051;-64
2023/09/11 06:08:11;;;;;;;;;;;18.50;99.90;;;;;;5064214;28;20041;-64
2023/09/11 06:10:36;;;;;;;18.42;6.18;;;18.50;99.90;;;;;;5064692;28;20015;-65
2023/09/11 06:13:02;;;;;;;;;;;18.50;99.90;;;;;;5064571;28;20111;-65
2023/09/11 06:15:29;;;;;;;22.17;6.22;;;18.60;99.90;;;;;;5057702;28;19917;-65
2023/09/11 06:17:55;;;;;;;26.95;6.05;;;18.80;99.90;;;;;;5064889;28;20044;-65
2023/09/11 06:20:21;;;;;;;;;;;18.90;99.90;;;;;;5061845;28;20040;-65
2023/09/11 06:22:47;;;;;;;19.20;6.13;;;18.90;99.90;;;;;;5064659;28;19935;-65
2023/09/11 06:25:15;;;;;;;16.08;5.72;;;18.90;99.90;;;;;;5061631;28;20124;-66
2023/09/11 06:27:40;;;;;;;16.77;5.80;;;18.90;99.90;;;;;;5066142;28;20102;-65
2023/09/11 06:30:06;;;;;;;;;;;18.90;99.90;;;;;;5064976;28;20041;-64
2023/09/11 06:32:35;;;;;;;23.45;5.88;;;19.00;99.90;;;;;;5065455;28;19917;-65
2023/09/11 06:35:04;;;;;;;16.70;6.40;;;19.10;99.90;;;;;;5062433;28;20044;-65
2023/09/11 06:37:30;;;;;;;16.30;5.88;;;19.20;99.90;;;;;;5059468;28;20123;-66
2023/09/11 06:39:56;;;;;;;;;;;19.20;99.90;;;;;;5062691;28;20120;-67
2023/09/11 06:42:23;;;;;;;19.02;5.57;;;19.30;99.90;;;;;;5066908;28;20387;-66
2023/09/11 06:44:50;;;;;;;18.95;6.95;;;19.30;99.90;;;;;;5062655;28;20094;-66
2023/09/11 06:47:16;;;;;;;19.35;5.78;;;19.40;99.90;;;;;;5065175;28;20051;-65
2023/09/11 06:49:41;;;;;;;;;;;19.50;99.90;;;;;;5062662;28;20032;-66
2023/09/11 06:52:07;;;;;;;27.17;6.00;;;19.60;99.90;;;;;;5063463;28;19944;-65
2023/09/11 06:54:32;;;;;;;;;;;19.70;99.90;;;;;;5062507;28;20040;-65
2023/09/11 06:56:58;;;;;;;24.70;5.93;;;19.70;99.90;;;;;;5063639;28;19920;-65
2023/09/11 06:59:23;;;;;;;17.23;6.18;;;19.80;99.90;;;;;;5063612;28;20516;-65
2023/09/11 07:01:50;;;;;;;18.55;6.53;;;19.90;99.90;;;;;;5061627;28;20101;-65
2023/09/11 07:04:17;;;;;;;20.42;6.43;;;20.00;99.90;;;;;;5062896;28;20051;-66
2023/09/11 07:06:43;;;;;;;19.92;6.25;;;20.00;99.90;;;;;;5061440;28;20404;-66
2023/09/11 07:09:09;;;;;;;27.15;6.05;;;20.20;99.90;;;;;;5057026;28;20037;-65
2023/09/11 07:11:35;;;;;;;19.58;5.90;;;20.30;99.90;;;;;;5066174;28;20075;-65
2023/09/11 07:14:01;;;;;;;;;;;20.30;99.90;;;;;;5059143;28;20449;-66
2023/09/11 07:16:27;;;;;;;17.38;6.38;;;20.40;99.90;;;;;;5061996;28;19965;-65
2023/09/11 07:18:52;;;;;;;19.73;6.65;;;20.40;99.90;;;;;;5061664;28;20044;-64
2023/09/11 07:21:18;;;;;;;19.65;6.03;;;20.60;99.90;;;;;;5059238;28;20028;-64
2023/09/11 07:23:44;;;;;;;16.83;6.63;;;20.80;99.90;;;;;;5065004;28;20040;-66
2023/09/11 07:26:10;;;;;;;21.42;6.13;;;20.80;99.90;;;;;;5060576;28;20051;-66
2023/09/11 07:29:05;;;;;;;22.17;6.40;;;20.90;99.90;;;;;;5068052;28;20529;-66
2023/09/11 07:31:32;;;;;;;37.42;7.25;;;21.00;99.90;;;;;;5054685;28;20508;-66
2023/09/11 07:33:58;;;;;;;19.48;5.88;;;21.10;99.90;;;;;;5068915;28;20047;-65
2023/09/11 07:36:25;;;;;;;26.80;6.65;;;21.10;99.90;;;;;;5065532;28;20325;-66
2023/09/11 07:38:51;;;;;;;18.92;5.68;;;21.20;99.90;;;;;;5068237;28;20384;-66
2023/09/11 07:41:18;;;;;;;17.02;5.90;;;21.20;99.90;;;;;;5064679;28;20045;-65
2023/09/11 07:43:49;;;;;;;21.40;6.20;;;21.30;99.90;;;;;;5069566;28;20036;-65
2023/09/11 07:46:19;;;;;;;26.00;6.50;;;21.40;99.90;;;;;;5063772;28;20056;-65
2023/09/11 07:48:45;;;;;;;22.52;5.68;;;21.60;99.90;;;;;;5068811;28;20032;-65
2023/09/11 07:51:12;;;;;;;23.80;6.20;;;21.60;99.90;;;;;;5064403;28;20082;-66
2023/09/11 07:53:38;;;;;;;24.50;6.05;;;21.70;99.90;;;;;;5060964;28;20531;-66
2023/09/11 07:56:07;;;;;;;19.85;6.30;;;21.80;99.90;;;;;;5064916;28;20044;-64
2023/09/11 07:58:35;;;;;;;22.42;5.72;;;22.00;99.90;;;;;;5068570;28;20047;-66
2023/09/11 08:01:00;;;;;;;15.80;5.50;;;22.10;99.90;;;;;;5063317;28;20037;-65
2023/09/11 08:03:26;;;;;;;18.95;5.15;;;22.20;99.90;;;;;;5067982;28;20037;-66
2023/09/11 08:05:53;;;;;;;19.33;5.68;;;22.40;99.90;;;;;;5064367;28;20561;-64
2023/09/11 08:08:19;;;;;;;20.02;5.00;;;23.00;99.90;;;;;;5066664;28;20069;-65
2023/09/11 08:10:44;;;;;;;13.20;5.43;;;23.80;99.90;;;;;;5066911;28;20064;-66
2023/09/11 08:13:10;;;;;;;15.40;5.47;;;24.30;99.90;;;;;;5067742;28;20033;-67
2023/09/11 08:15:35;;;;;;;16.50;4.65;;;24.70;99.90;;;;;;5069045;28;20115;-66
2023/09/11 08:18:01;;;;;;;11.95;5.05;;;25.20;99.40;;;;;;5068076;28;20484;-66
2023/09/11 08:20:27;;;;;;;18.40;4.82;;;26.30;99.20;;;;;;5062025;28;20128;-66
2023/09/11 08:22:52;;;;;;;15.68;4.93;;;27.30;96.60;;;;;;5068592;28;20047;-67
2023/09/11 08:25:18;;;;;;;18.65;5.15;;;28.10;95.50;;;;;;5060607;28;20044;-65
2023/09/11 08:27:44;;;;;;;11.77;4.43;;;28.60;93.70;;;;;;5068315;28;20071;-66
2023/09/11 08:30:10;;;;;;;14.98;4.43;;;28.50;93.20;;;;;;5061251;28;20041;-65
2023/09/11 08:32:35;;;;;;;18.92;4.85;;;27.90;93.30;;;;;;5066389;28;20547;-65
2023/09/11 08:35:02;;;;;;;15.70;4.43;;;26.80;95.60;;;;;;5065666;28;20044;-66
2023/09/11 08:37:29;;;;;;;20.80;4.35;;;26.20;96.40;;;;;;5067513;28;20054;-66
2023/09/11 08:39:55;;;;;;;12.82;4.40;;;25.80;98.50;;;;;;5062028;28;20086;-65
2023/09/11 08:42:22;;;;;;;17.58;5.07;;;25.50;98.40;;;;;;5068569;28;20040;-66
2023/09/11 08:44:49;;;;;;;25.92;6.35;;;25.30;98.60;;;;;;5065396;28;20041;-66
2023/09/11 08:47:16;;;;;;;18.27;5.30;;;25.10;97.50;;;;;;5067344;28;20044;-66
2023/09/11 08:49:43;;;;;;;30.52;6.10;;;25.10;99.20;;;;;;5063625;28;20488;-65
2023/09/11 08:52:12;;;;;;;17.40;5.45;;;25.10;98.20;;;;;;5069932;28;20043;-66
2023/09/11 08:54:42;;;;;;;15.32;4.75;;;25.10;99.90;;;;;;5061897;28;20044;-65
2023/09/11 08:57:12;;;;;;;17.45;5.15;;;25.10;99.00;;;;;;5065353;28;20048;-66
2023/09/11 08:59:40;;;;;;;18.90;4.70;;;25.20;99.80;;;;;;5061900;28;20098;-66
2023/09/11 09:02:07;;;;;;;18.75;4.60;;;25.30;99.10;;;;;;5064764;28;20040;-65
2023/09/11 09:04:34;;;;;;;15.77;4.90;;;25.30;99.00;;;;;;5058005;28;20385;-66
2023/09/11 09:07:01;;;;;;;18.27;5.10;;;25.30;99.90;;;;;;5064343;28;20109;-65
2023/09/11 09:09:27;;;;;;;20.65;4.97;;;25.40;99.70;;;;;;5057960;28;20424;-65
2023/09/11 09:11:53;;;;;;;14.38;4.85;;;25.40;98.80;;;;;;5066545;28;20039;-64
2023/09/11 09:14:19;;;;;;;11.52;4.93;;;25.50;98.40;;;;;;5063255;28;20033;-65
2023/09/11 09:16:45;;;;;;;22.92;4.40;;;25.60;99.20;;;;;;5062931;28;20041;-65
2023/09/11 09:19:11;;;;;;;25.70;5.25;;;25.60;99.90;;;;;;5065087;28;20648;-66
2023/09/11 09:22:04;;;;;;;18.33;5.22;;;25.50;98.40;;;;;;5062184;28;20052;-66
2023/09/11 09:24:30;;;;;;;15.43;4.63;;;25.50;98.30;;;;;;5062384;28;20068;-66
2023/09/11 09:26:57;;;;;;;13.48;5.15;;;25.60;99.10;;;;;;5064868;28;20143;-65
2023/09/11 09:29:24;;;;;;;16.92;4.65;;;25.70;97.50;;;;;;5062659;28;20484;-66
2023/09/11 09:31:50;;;;;;;18.63;4.93;;;25.90;98.20;;;;;;5061064;28;20036;-66
2023/09/11 09:34:17;;;;;;;13.63;5.20;;;25.90;97.70;;;;;;5067292;28;20044;-66
2023/09/11 09:36:49;;;;;;;19.77;4.47;;;26.00;98.00;;;;;;5060955;28;20132;-65
2023/09/11 09:39:15;;;;;;;15.68;4.82;;;26.10;96.90;;;;;;5063918;28;20119;-66
2023/09/11 09:41:52;;;;;;;15.57;4.75;;;26.10;96.40;;;;;;5063671;28;20144;-64
2023/09/11 09:44:29;;;;;;;24.42;4.40;;;26.30;95.50;;;;;;5059505;28;20041;-65
2023/09/11 09:46:55;;;;;;;14.90;4.30;;;26.30;96.60;;;;;;5059396;28;20090;-69
2023/09/11 09:49:22;;;;;;;15.73;5.18;;;26.40;97.80;;;;;;5057632;28;20049;-67
2023/09/11 09:51:48;;;;;;;15.52;4.30;;;26.50;95.10;;;;;;5061431;28;20043;-66
2023/09/11 09:54:13;;;;;;;19.65;4.78;;;26.50;94.60;;;;;;5061415;28;20119;-67
2023/09/11 09:56:42;;;;;;;16.35;4.95;;;26.60;94.30;;;;;;5065792;28;20048;-66
2023/09/11 09:59:07;;;;;;;14.77;4.47;;;26.60;95.20;;;;;;5060370;28;20089;-67
2023/09/11 10:02:21;;;;;;;13.68;4.55;;;26.60;95.10;;;;;;5066695;28;20051;-68
2023/09/11 10:04:51;;;;;;;20.35;4.22;;;26.60;96.10;;;;;;5046155;28;20143;-66
2023/09/11 10:07:53;;;;;;;16.83;4.57;;;26.50;95.00;;;;;;5069524;28;20499;-67
2023/09/11 10:10:29;;;;;;;14.23;5.03;;;26.50;96.20;;;;;;5058867;28;20032;-68
2023/09/11 10:13:08;;;;;;;14.60;4.60;;;26.50;95.80;;;;;;5061148;28;20040;-66
2023/09/11 10:15:36;;;;;;;17.02;5.70;;;26.60;95.40;;;;;;5075675;28;20056;-66
2023/09/11 10:18:03;;;;;;;18.10;5.03;;;26.80;94.70;;;;;;5060294;28;20041;-67
2023/09/11 10:20:30;;;;;;;24.45;4.65;;;26.80;93.50;;;;;;5061196;28;20213;-67
2023/09/11 10:22:59;;;;;;;28.17;6.75;;;26.80;93.60;;;;;;5066493;28;20040;-66
2023/09/11 10:25:27;;;;;;;14.23;4.85;;;26.70;95.80;;;;;;5061021;28;20044;-68
2023/09/11 10:28:03;;;;;;;12.18;4.82;;;26.90;93.60;;;;;;5065351;28;20049;-66
2023/09/11 10:30:49;;;;;;;20.95;5.45;;;26.90;94.60;;;;;;5062618;28;20041;-65
2023/09/11 10:33:21;;;;;;;14.32;4.68;;;26.80;94.20;;;;;;5063750;28;20048;-66
2023/09/11 10:35:57;;;;;;;19.70;4.90;;;26.90;94.90;;;;;;5065029;28;20048;-67
2023/09/11 10:41:46;;;;;;;20.05;4.88;;;27.00;93.80;;;;;;5036106;28;20083;-66
2023/09/11 10:44:11;;;;;;;17.33;4.43;;;26.90;93.80;;;;;;5062062;28;20555;-65
2023/09/11 10:46:39;;;;;;;15.52;5.20;;;26.80;94.00;;;;;;5062398;28;20415;-65
2023/09/11 10:49:24;;;;;;;20.15;4.40;;;26.70;93.90;;;;;;5062646;28;20044;-66
2023/09/11 10:51:50;;;;;;;17.67;4.45;;;26.70;92.40;;;;;;5054514;28;20049;-65
2023/09/11 10:54:20;;;;;;;14.88;5.10;;;26.80;93.00;;;;;;5061894;28;20107;-66
2023/09/11 10:56:48;;;;;;;16.02;4.70;;;26.90;92.10;;;;;;5062536;28;20056;-67
2023/09/11 10:59:14;;;;;;;16.02;5.55;;;27.00;92.40;;;;;;5058045;28;20082;-65
2023/09/11 11:01:40;;;;;;;20.65;4.75;;;27.20;92.90;;;;;;5058078;28;20123;-66
2023/09/11 11:04:06;;;;;;;20.33;5.30;;;27.30;92.00;;;;;;5056860;28;20128;-63
2023/09/11 11:06:33;;;;;;;22.35;5.13;;;27.30;93.20;;;;;;5058217;28;20048;-64
2023/09/11 11:08:59;;;;;;;17.08;4.70;;;27.30;93.60;;;;;;5062185;28;20032;-66
2023/09/11 11:11:27;;;;;;;10.65;4.32;;;27.40;93.70;;;;;;5068927;28;20234;-67
2023/09/11 11:14:43;;;;;;;13.55;4.45;;;27.40;93.20;;;;;;5068499;28;20044;-65
2023/09/11 11:17:12;;;;;;;15.90;4.50;;;27.40;93.80;;;;;;5062491;28;20036;-66
2023/09/11 11:19:40;;;;;;;14.63;3.83;;;27.40;92.50;;;;;;5056922;28;20690;-66
2023/09/11 11:22:07;;;;;;;16.10;4.72;;;27.40;94.10;;;;;;5056347;28;20518;-66
2023/09/11 11:24:49;;;;;;;13.73;4.38;;;27.40;92.50;;;;;;5058746;28;20039;-66
2023/09/11 11:27:15;;;;;;;14.38;4.38;;;27.50;93.70;;;;;;5066155;28;20051;-65
2023/09/11 11:29:40;;;;;;;18.35;5.47;;;27.60;92.00;;;;;;5062220;28;20032;-66
2023/09/11 11:32:10;;;;;;;13.05;4.43;;;27.60;92.70;;;;;;5065815;28;20032;-65
2023/09/11 11:34:37;;;;;;;21.60;4.80;;;27.60;92.20;;;;;;5063387;28;20459;-66
2023/09/11 11:37:05;;;;;;;22.70;5.18;;;27.50;92.50;;;;;;5061113;28;20488;-66
2023/09/11 11:39:36;;;;;;;17.15;4.53;;;27.50;92.60;;;;;;5063035;28;20040;-66
2023/09/11 11:42:02;;;;;;;18.70;4.35;;;27.50;92.30;;;;;;5066530;28;20123;-67
2023/09/11 11:44:33;;;;;;;16.10;4.82;;;27.60;92.40;;;;;;5063883;28;20037;-65
2023/09/11 11:46:59;;;;;;;14.00;4.75;;;27.80;93.20;;;;;;5066436;28;20036;-65
2023/09/11 11:49:25;;;;;;;15.52;4.63;;;27.80;92.60;;;;;;5063415;28;20132;-66
2023/09/11 11:51:50;;;;;;;13.90;4.28;;;27.90;90.70;;;;;;5065266;28;20127;-66
2023/09/11 11:55:19;;;;;;;22.08;4.45;;;27.90;92.40;;;;;;5063627;28;20111;-66
2023/09/11 11:57:54;;;;;;;10.05;3.85;;;28.00;92.40;;;;;;5035119;28;20045;-65
2023/09/11 12:07:04;;;;;;;18.35;4.82;;;28.00;92.20;;;;;;4972429;28;20068;-66
2023/09/11 12:09:29;;;;;;;11.30;4.10;;;27.90;91.50;;;;;;5029994;28;20541;-65
2023/09/11 12:11:55;;;;;;;22.20;4.90;;;28.00;92.60;;;;;;5044709;28;20386;-66
2023/09/11 12:14:20;;;;;;;17.23;4.43;;;28.10;91.50;;;;;;5039326;28;20033;-66
2023/09/11 12:16:46;;;;;;;17.70;5.72;;;28.10;89.20;;;;;;5036006;28;20037;-67
2023/09/11 12:19:13;;;;;;;19.35;7.13;;;28.20;90.30;;;;;;5042834;28;20072;-67
2023/09/11 12:21:40;;;;;;;11.18;4.25;;;28.30;89.20;;;;;;5042335;28;20049;-67
2023/09/11 12:24:09;;;;;;;15.60;4.22;;;28.40;90.90;;;;;;5043986;28;20687;-68
2023/09/11 12:26:36;;;;;;;15.52;5.95;;;28.50;89.20;;;;;;5048144;28;20409;-65
2023/09/11 12:29:03;;;;;;;21.58;5.53;;;28.50;90.20;;;;;;5042554;28;20045;-67
2023/09/11 12:31:29;;;;;;;16.35;4.28;;;28.40;90.20;;;;;;5045456;28;20045;-66
2023/09/11 12:33:58;;;;;;;18.42;5.20;;;28.50;90.60;;;;;;5047038;28;20045;-67
2023/09/11 12:36:23;;;;;;;16.00;4.53;;;28.60;87.80;;;;;;5048479;28;20037;-67
2023/09/11 12:38:49;;;;;;;19.95;5.13;;;28.70;88.30;;;;;;5044176;28;20044;-68
2023/09/11 12:41:17;;;;;;;14.70;4.47;;;28.70;88.20;;;;;;5047301;28;20044;-67
2023/09/11 12:43:44;;;;;;;16.60;4.88;;;28.70;84.80;;;;;;5041485;28;20092;-68
2023/09/11 12:46:13;;;;;;;13.65;4.45;;;28.60;85.20;;;;;;5044447;28;20039;-66
2023/09/11 12:48:44;;;;;;;14.30;3.97;;;28.50;86.20;;;;;;5047022;28;20076;-67
2023/09/11 12:51:10;;;;;;;19.35;4.82;;;28.60;90.10;;;;;;5046558;28;20488;-66
2023/09/11 12:53:37;;;;;;;11.95;4.18;;;28.70;85.70;;;;;;5046251;28;20044;-66
2023/09/11 12:56:06;;;;;;;15.95;4.50;;;28.80;85.50;;;;;;5045431;28;20455;-66
2023/09/11 12:58:38;;;;;;;20.25;4.00;;;28.80;84.00;;;;;;5048350;28;20531;-67
2023/09/11 13:01:04;;;;;;;19.60;4.57;;;28.80;84.20;;;;;;5040882;28;20065;-67
2023/09/11 13:03:31;;;;;;;24.70;5.45;;;28.80;89.50;;;;;;5042933;28;20120;-66
2023/09/11 13:05:57;;;;;;;10.90;4.28;;;28.80;89.70;;;;;;5040645;28;20087;-66